Time;durP1;ratioP1;P1;durP2;ratioP2;P2;SDS_P1;SDS_P2;PMS_P1;PMS_P2;Temp;Humidity;BMP_temperature;BMP_pressure;BME280_temperature;BME280_humidity;BME280_pressure;Samples;Min_cycle;Max_cycle;Signal;HPM_P1;HPM_P2
2023/10/09 00:07:00;;;;;;;8.03;4.67;;;;;;;8.26;61.70;100979.16;31214683;28;97124;-78
2023/10/09 00:37:23;;;;;;;7.10;3.27;;;;;;;7.85;62.07;100912.84;31212781;28;97148;-72
2023/10/09 00:52:32;;;;;;;7.03;3.40;;;;;;;7.74;63.78;100939.47;31211573;28;97597;-70
2023/10/09 01:07:32;;;;;;;7.67;3.43;;;;;;;7.71;63.72;100897.28;31210203;28;97209;-78
2023/10/09 01:22:33;;;;;;;6.63;3.25;;;;;;;7.67;64.61;100896.72;31191132;28;96721;-75
2023/10/09 01:37:36;;;;;;;7.65;3.50;;;;;;;7.72;65.07;100875.09;31224236;27;111437;-73
2023/10/09 01:52:38;;;;;;;7.47;3.40;;;;;;;7.62;65.39;100867.13;31228144;27;97204;-75
2023/10/09 02:07:41;;;;;;;7.50;3.17;;;;;;;7.70;65.67;100829.31;31227655;28;97460;-74
2023/10/09 02:22:41;;;;;;;6.80;3.37;;;;;;;7.72;66.24;100798.19;31225746;28;96680;-79
2023/10/09 02:37:41;;;;;;;5.72;2.67;;;;;;;7.79;66.77;100759.53;31224929;28;97153;-72
2023/10/09 02:52:42;;;;;;;5.78;3.15;;;;;;;7.80;66.73;100750.59;31222768;27;114828;-73
2023/10/09 03:07:44;;;;;;;4.60;2.25;;;;;;;7.69;66.59;100745.44;31220656;28;97052;-78
2023/10/09 03:22:45;;;;;;;7.53;3.60;;;;;;;7.69;66.70;100738.31;31218633;28;96971;-75
2023/10/09 03:37:45;;;;;;;6.10;1.97;;;;;;;7.70;67.76;100717.94;31215698;28;96665;-73
2023/10/09 03:52:46;;;;;;;4.18;2.00;;;;;;;7.59;67.16;100660.56;31213613;27;110150;-74
2023/10/09 04:07:48;;;;;;;4.30;2.03;;;;;;;7.48;67.92;100634.16;31213261;28;105739;-76
2023/10/09 04:22:59;;;;;;;2.63;1.50;;;;;;;7.24;68.13;100608.91;31210966;28;97113;-73
2023/10/09 04:38:08;;;;;;;3.40;1.73;;;;;;;7.07;69.45;100590.09;31208876;28;97135;-72
2023/10/09 05:08:21;;;;;;;4.27;1.83;;;;;;;7.26;71.06;100625.53;31201819;28;97359;-76
2023/10/09 05:23:25;;;;;;;3.27;1.30;;;;;;;7.30;70.87;100608.38;31204883;28;98033;-80
2023/10/09 05:38:26;;;;;;;4.63;1.53;;;;;;;7.24;71.39;100600.97;31203315;28;96814;-75
2023/10/09 05:54:11;;;;;;;3.40;1.75;;;;;;;7.15;71.79;100572.66;31202744;28;112105;-76
2023/10/09 06:54:29;;;;;;;4.47;1.07;;;;;;;7.61;73.31;100447.34;31221985;27;97282;-78
2023/10/09 07:09:42;;;;;;;3.67;1.80;;;;;;;7.61;73.68;100443.84;31219075;28;96989;-59
2023/10/09 07:24:49;;;;;;;7.40;3.00;;;;;;;7.74;73.92;100430.25;31218126;27;97164;-66
2023/10/09 07:39:57;;;;;;;6.40;2.90;;;;;;;7.88;74.23;100424.47;31212807;28;97080;-67
2023/10/09 07:55:03;;;;;;;6.33;3.93;;;;;;;8.00;74.78;100422.47;31210416;28;97097;-67
2023/10/09 08:25:27;;;;;;;5.77;2.57;;;;;;;8.21;74.59;100376.25;31201894;28;97416;-59
2023/10/09 08:40:38;;;;;;;9.23;2.77;;;;;;;8.93;74.50;100369.09;31208926;27;97035;-65
2023/10/09 08:55:40;;;;;;;3.70;2.10;;;;;;;8.56;73.59;100345.41;31208344;27;97013;-75
2023/10/09 09:10:46;;;;;;;4.03;1.50;;;;;;;8.53;74.19;100370.44;31209035;28;97894;-62
2023/10/09 09:25:48;;;;;;;2.90;1.40;;;;;;;8.34;73.85;100384.69;31206130;28;96927;-63
2023/10/09 09:40:53;;;;;;;2.90;1.90;;;;;;;8.25;73.46;100361.69;31211735;28;97034;-75
2023/10/09 09:56:00;;;;;;;3.53;1.50;;;;;;;8.67;73.76;100361.09;31219769;27;96665;-73
2023/10/09 10:11:13;;;;;;;3.63;1.60;;;;;;;8.56;73.27;100337.47;31224411;28;96648;-60
2023/10/09 10:26:18;;;;;;;3.07;1.40;;;;;;;8.52;73.63;100330.78;31221498;28;97173;-69
2023/10/09 10:41:22;;;;;;;4.80;1.90;;;;;;;8.58;73.81;100327.50;31219658;28;96711;-79
2023/10/09 10:56:35;;;;;;;4.83;1.73;;;;;;;8.81;73.59;100325.19;31220377;27;97055;-59
2023/10/09 11:11:42;;;;;;;3.67;1.90;;;;;;;8.83;73.57;100327.69;31215474;27;97173;-60
2023/10/09 11:26:43;;;;;;;4.63;2.33;;;;;;;9.00;73.27;100315.34;31216646;28;96766;-62
2023/10/09 11:41:49;;;;;;;4.78;2.60;;;;;;;9.46;73.27;100298.13;31215477;28;96826;-68
2023/10/09 11:56:49;;;;;;;6.87;3.03;;;;;;;9.67;73.16;100299.53;31214497;28;97082;-63
2023/10/09 12:11:52;;;;;;;5.10;2.50;;;;;;;9.86;71.87;100306.41;31211329;27;117118;-61
2023/10/09 12:26:53;;;;;;;4.38;2.20;;;;;;;10.29;71.30;100300.97;31205651;28;97713;-68
2023/10/09 12:41:53;;;;;;;5.13;2.30;;;;;;;10.42;71.39;100274.69;31205205;28;96790;-65
2023/10/09 12:56:57;;;;;;;3.90;2.75;;;;;;;10.53;71.04;100267.38;31207845;28;96831;-62
2023/10/09 13:12:00;;;;;;;3.57;2.90;;;;;;;10.78;70.87;100274.31;31206677;28;97370;-64
2023/10/09 13:27:04;;;;;;;6.50;2.73;;;;;;;10.71;70.05;100286.66;31211504;27;97063;-59
2023/10/09 13:42:07;;;;;;;5.43;2.63;;;;;;;10.60;69.89;100244.38;31224019;28;97131;-76
2023/10/09 13:57:10;;;;;;;4.05;2.83;;;;;;;10.45;69.83;100258.38;31225987;27;97702;-66
2023/10/09 14:12:11;;;;;;;8.23;3.03;;;;;;;10.44;69.47;100256.75;31224644;28;97106;-66
2023/10/09 14:27:18;;;;;;;6.32;3.63;;;;;;;10.42;69.33;100293.34;31220894;28;97070;-63
2023/10/09 14:42:20;;;;;;;6.23;3.87;;;;;;;10.34;69.62;100298.63;31218952;28;97528;-75
2023/10/09 14:57:20;;;;;;;5.43;3.40;;;;;;;10.22;69.24;100305.28;31219784;28;97026;-73
2023/10/09 15:12:22;;;;;;;6.88;2.85;;;;;;;10.07;69.53;100319.22;31218937;28;97176;-59
2023/10/09 15:27:24;;;;;;;6.63;3.00;;;;;;;9.82;69.90;100321.84;31214232;28;98552;-69
2023/10/09 15:42:25;;;;;;;3.10;2.23;;;;;;;9.75;69.31;100328.81;31214157;28;97042;-67
2023/10/09 15:57:25;;;;;;;4.50;2.63;;;;;;;9.57;69.25;100330.75;31211505;27;97440;-69
2023/10/09 16:12:30;;;;;;;4.40;2.72;;;;;;;9.52;69.63;100344.53;31211033;28;97391;-64
2023/10/09 16:27:31;;;;;;;6.47;3.77;;;;;;;9.27;69.68;100370.16;31210467;28;96701;-58
2023/10/09 16:42:35;;;;;;;6.30;3.45;;;;;;;9.20;70.13;100393.88;31208667;28;96715;-73
2023/10/09 16:57:39;;;;;;;7.23;3.37;;;;;;;9.19;70.35;100391.38;31204720;27;96688;-67
2023/10/09 17:12:40;;;;;;;10.00;3.40;;;;;;;9.12;70.43;100385.84;31204028;28;97472;-61
2023/10/09 17:27:41;;;;;;;6.57;3.90;;;;;;;9.09;70.94;100408.25;31203943;28;98547;-61
2023/10/09 17:42:41;;;;;;;5.93;3.90;;;;;;;9.01;70.61;100416.16;31202966;28;96807;-62
2023/10/09 17:57:41;;;;;;;8.55;3.58;;;;;;;8.92;70.72;100417.09;31201461;27;96742;-59
2023/10/09 18:12:42;;;;;;;7.88;3.92;;;;;;;8.96;70.91;100426.41;31208852;27;100583;-58
2023/10/09 18:27:42;;;;;;;5.80;4.57;;;;;;;8.90;70.77;100429.66;31222004;28;96987;-59
2023/10/09 18:42:42;;;;;;;6.88;5.05;;;;;;;8.71;70.83;100430.69;31221107;28;101734;-59
2023/10/09 18:57:43;;;;;;;8.80;5.10;;;;;;;8.69;71.22;100443.28;31203025;28;96818;-60
2023/10/09 19:12:43;;;;;;;6.80;5.78;;;;;;;8.68;71.12;100423.00;31221271;28;96655;-59
2023/10/09 19:27:46;;;;;;;9.40;5.97;;;;;;;8.58;71.74;100413.31;31219241;27;97116;-61
2023/10/09 19:42:47;;;;;;;11.17;6.73;;;;;;;8.55;71.56;100420.75;31198686;28;97435;-59
2023/10/09 19:57:48;;;;;;;9.75;7.75;;;;;;;8.67;71.78;100456.72;31215286;27;97708;-59
2023/10/09 20:12:48;;;;;;;15.27;7.65;;;;;;;8.54;71.80;100456.25;31212476;28;109829;-65
2023/10/09 20:27:49;;;;;;;12.45;8.50;;;;;;;8.60;71.95;100468.94;31210560;28;107956;-59
2023/10/09 20:42:50;;;;;;;11.20;7.47;;;;;;;8.54;71.88;100473.00;31211434;28;97518;-59
2023/10/09 20:57:57;;;;;;;12.03;7.57;;;;;;;8.43;72.27;100489.97;31211146;27;97198;-63
2023/10/09 21:12:57;;;;;;;13.23;7.93;;;;;;;8.46;72.55;100486.19;31208398;28;97675;-59
2023/10/09 21:27:57;;;;;;;11.60;7.90;;;;;;;8.30;72.82;100470.91;31208954;28;112976;-59
2023/10/09 21:43:02;;;;;;;12.82;8.20;;;;;;;8.21;72.73;100461.16;31207564;28;96805;-62
2023/10/09 21:58:06;;;;;;;10.87;7.20;;;;;;;8.12;73.28;100479.66;31229190;27;97819;-59
2023/10/09 22:13:07;;;;;;;9.97;6.83;;;;;;;8.12;73.78;100492.91;31226900;28;97499;-68
2023/10/09 22:28:11;;;;;;;14.38;7.07;;;;;;;8.13;73.44;100489.28;31226427;28;97184;-59
2023/10/09 22:43:14;;;;;;;11.47;6.97;;;;;;;8.16;73.93;100484.66;31224865;28;96743;-60
2023/10/09 22:58:15;;;;;;;10.97;7.73;;;;;;;8.14;73.74;100476.84;31223618;27;97144;-63
2023/10/09 23:13:17;;;;;;;11.52;8.25;;;;;;;8.13;73.66;100480.47;31221824;28;97134;-62
2023/10/09 23:28:36;;;;;;;11.67;7.27;;;;;;;8.05;74.04;100467.97;31221541;28;96777;-78
2023/10/09 23:43:46;;;;;;;13.03;8.60;;;;;;;8.06;74.85;100485.53;31218825;28;97101;-64
2023/10/09 23:58:46;;;;;;;16.40;10.17;;;;;;;8.16;74.68;100490.81;31217280;28;97718;-66
